createdAt,value
2022-08-02T00:00:25.584Z,1.50
2022-08-02T00:02:59.520Z,1.73
2022-08-02T00:05:33.200Z,1.58
2022-08-02T00:08:07.362Z,1.50
2022-08-02T00:10:41.208Z,1.60
2022-08-02T00:13:15.440Z,1.70
2022-08-02T00:15:50.904Z,1.50
2022-08-02T00:18:24.618Z,1.58
2022-08-02T00:20:58.325Z,1.52
2022-08-02T00:23:32.332Z,1.58
2022-08-02T00:26:26.130Z,1.70
2022-08-02T00:28:59.659Z,1.48
2022-08-02T00:31:34.647Z,1.45
2022-08-02T00:34:28.881Z,1.55
2022-08-02T00:37:02.185Z,1.52
2022-08-02T00:39:37.805Z,1.60
2022-08-02T00:42:12.242Z,1.40
2022-08-02T00:44:46.567Z,1.52
2022-08-02T00:47:21.052Z,1.63
2022-08-02T00:49:54.142Z,1.65
2022-08-02T00:52:27.298Z,1.55
2022-08-02T00:55:00.402Z,1.70
2022-08-02T00:57:33.505Z,1.40
2022-08-02T01:00:08.822Z,1.60
2022-08-02T01:02:43.435Z,1.70
2022-08-02T01:05:17.291Z,1.50
2022-08-02T01:07:50.431Z,1.60
2022-08-02T01:10:23.569Z,1.50
2022-08-02T01:12:56.761Z,1.75
2022-08-02T01:15:35.655Z,1.50
2022-08-02T01:18:21.207Z,1.52
2022-08-02T01:21:15.822Z,1.77
2022-08-02T01:24:15.367Z,1.83
2022-08-02T01:26:54.129Z,1.60
2022-08-02T01:29:33.279Z,1.58
2022-08-02T01:32:13.496Z,1.42
2022-08-02T01:34:55.039Z,1.50
2022-08-02T01:37:36.807Z,1.40
2022-08-02T01:40:14.320Z,1.80
2022-08-02T01:42:51.009Z,1.80
2022-08-02T01:45:28.184Z,1.40
2022-08-02T01:48:02.035Z,1.35
2022-08-02T01:50:38.248Z,1.40
2022-08-02T01:53:12.866Z,1.98
2022-08-02T01:55:57.524Z,1.65
2022-08-02T01:58:36.571Z,1.40
2022-08-02T02:01:14.674Z,1.70
2022-08-02T02:03:52.360Z,1.70
2022-08-02T02:06:25.957Z,1.67
2022-08-02T02:09:00.466Z,1.40
2022-08-02T02:12:11.002Z,1.58
2022-08-02T02:14:30.192Z,1.50
2022-08-02T02:17:05.910Z,1.73
2022-08-02T02:19:40.349Z,2.08
2022-08-02T02:22:13.715Z,1.80
2022-08-02T02:24:46.921Z,1.63
2022-08-02T02:27:22.856Z,1.60
2022-08-02T02:29:57.582Z,1.88
2022-08-02T02:32:33.140Z,1.92
2022-08-02T02:35:09.771Z,1.77
2022-08-02T02:37:44.794Z,1.70
2022-08-02T02:40:19.272Z,1.83
2022-08-02T02:42:53.169Z,1.70
2022-08-02T02:45:26.870Z,1.70
2022-08-02T02:48:02.888Z,1.80
2022-08-02T02:50:38.086Z,1.90
2022-08-02T02:53:13.111Z,2.10
2022-08-02T02:56:01.585Z,2.10
2022-08-02T02:58:36.196Z,2.10
2022-08-02T03:01:56.212Z,2.05
2022-08-02T03:04:22.590Z,2.08
2022-08-02T03:06:55.706Z,2.20
2022-08-02T03:09:28.814Z,1.77
2022-08-02T03:12:02.051Z,1.92
2022-08-02T03:14:36.118Z,1.98
2022-08-02T03:17:10.441Z,2.08
2022-08-02T03:19:46.569Z,2.03
2022-08-02T03:22:20.604Z,2.25
2022-08-02T03:24:54.241Z,2.08
2022-08-02T03:27:29.005Z,2.10
2022-08-02T03:30:03.041Z,2.33
2022-08-02T03:32:38.355Z,2.30
2022-08-02T03:35:22.950Z,2.50
2022-08-02T03:37:59.148Z,2.67
2022-08-02T03:40:34.016Z,3.25
2022-08-02T03:43:08.972Z,3.03
2022-08-02T03:45:48.275Z,2.80
2022-08-02T03:48:30.541Z,3.10
2022-08-02T03:51:11.386Z,3.47
2022-08-02T03:53:45.694Z,2.95
2022-08-02T03:56:19.736Z,3.47
2022-08-02T03:59:09.367Z,2.80
2022-08-02T04:01:44.123Z,3.17
2022-08-02T04:04:17.636Z,3.58
2022-08-02T04:06:53.282Z,3.40
2022-08-02T04:09:29.650Z,3.50
2022-08-02T04:12:03.845Z,3.03
2022-08-02T04:14:37.707Z,3.65
2022-08-02T04:17:13.407Z,3.55
2022-08-02T04:19:53.752Z,3.83
2022-08-02T04:22:35.555Z,3.92
2022-08-02T04:25:17.349Z,3.65
2022-08-02T04:28:16.767Z,2.65
2022-08-02T04:30:46.510Z,2.38
2022-08-02T04:33:20.202Z,2.63
2022-08-02T04:35:57.800Z,2.60
2022-08-02T04:38:34.795Z,2.53
2022-08-02T04:41:07.903Z,2.55
2022-08-02T04:43:41.001Z,2.53
2022-08-02T04:46:14.543Z,2.42
2022-08-02T04:48:47.668Z,2.47
2022-08-02T04:51:20.747Z,2.40
2022-08-02T04:54:14.057Z,2.55
2022-08-02T04:56:47.173Z,2.50
2022-08-02T04:59:20.418Z,2.45
2022-08-02T05:01:53.795Z,2.50
2022-08-02T05:04:26.850Z,2.75
2022-08-02T05:06:59.959Z,2.58
2022-08-02T05:09:34.516Z,2.80
2022-08-02T05:12:09.315Z,2.40
2022-08-02T05:14:42.833Z,2.80
2022-08-02T05:17:16.297Z,3.22
2022-08-02T05:19:49.439Z,2.58
2022-08-02T05:22:22.642Z,3.13
2022-08-02T05:24:57.076Z,2.53
2022-08-02T05:27:30.155Z,2.30
2022-08-02T05:30:04.387Z,2.92
2022-08-02T05:32:45.676Z,3.00
2022-08-02T05:35:20.859Z,3.00
2022-08-02T05:37:54.394Z,3.10
2022-08-02T05:40:28.995Z,3.08
2022-08-02T05:43:02.297Z,2.50
2022-08-02T05:45:35.923Z,2.95
2022-08-02T05:48:09.677Z,2.50
2022-08-02T05:50:49.662Z,2.47
2022-08-02T05:53:40.201Z,2.63
2022-08-02T05:56:25.907Z,2.80
2022-08-02T05:59:13.043Z,2.50
2022-08-02T06:01:49.883Z,2.47
2022-08-02T06:04:27.721Z,2.20
2022-08-02T06:07:06.198Z,2.40
2022-08-02T06:09:41.202Z,2.05
2022-08-02T06:12:18.418Z,2.40
2022-08-02T06:14:54.571Z,2.22
2022-08-02T06:17:28.169Z,4.50
2022-08-02T06:20:02.928Z,3.20
2022-08-02T06:22:37.795Z,2.50
2022-08-02T06:25:49.882Z,2.42
2022-08-02T06:28:11.500Z,2.00
2022-08-02T06:30:46.105Z,2.35
2022-08-02T06:33:19.270Z,2.40
2022-08-02T06:36:02.338Z,2.35
2022-08-02T06:38:43.669Z,2.53
2022-08-02T06:41:26.358Z,2.70
2022-08-02T06:44:27.385Z,2.22
2022-08-02T06:47:11.390Z,2.22
2022-08-02T06:49:52.569Z,1.90
2022-08-02T06:52:31.182Z,1.90
2022-08-02T06:55:07.602Z,2.30
2022-08-02T06:57:40.792Z,2.40
2022-08-02T07:00:16.395Z,2.35
2022-08-02T07:02:51.288Z,2.20
2022-08-02T07:05:25.375Z,2.55
2022-08-02T07:07:58.553Z,2.78
2022-08-02T07:10:31.706Z,3.20
2022-08-02T07:13:04.799Z,3.30
2022-08-02T07:15:40.813Z,2.85
2022-08-02T07:18:23.409Z,3.20
2022-08-02T07:20:56.676Z,2.97
2022-08-02T07:23:29.748Z,3.75
2022-08-02T07:26:05.381Z,3.70
2022-08-02T07:28:39.027Z,2.70
2022-08-02T07:31:13.503Z,3.30
2022-08-02T07:33:47.195Z,3.20
2022-08-02T07:36:22.770Z,3.60
2022-08-02T07:38:57.887Z,3.75
2022-08-02T07:41:31.638Z,3.40
2022-08-02T07:44:04.951Z,3.20
2022-08-02T07:46:39.456Z,3.65
2022-08-02T07:49:13.918Z,3.80
2022-08-02T07:51:47.046Z,3.25
2022-08-02T07:54:20.324Z,3.13
2022-08-02T07:56:58.440Z,3.40
2022-08-02T07:59:32.076Z,3.42
2022-08-02T08:02:06.718Z,3.45
2022-08-02T08:04:39.884Z,3.47
2022-08-02T08:07:13.146Z,3.53
2022-08-02T08:09:47.517Z,3.40
2022-08-02T08:12:20.880Z,3.47
2022-08-02T08:14:55.156Z,3.42
2022-08-02T08:17:29.674Z,3.33
2022-08-02T08:20:03.152Z,3.40
2022-08-02T08:22:36.208Z,3.80
2022-08-02T08:25:10.091Z,3.78
2022-08-02T08:27:49.991Z,3.80
2022-08-02T08:30:23.912Z,3.80
2022-08-02T08:32:58.425Z,3.70
2022-08-02T08:35:31.560Z,3.58
2022-08-02T08:38:07.634Z,3.72
2022-08-02T08:40:45.165Z,3.38
2022-08-02T08:43:19.611Z,3.88
2022-08-02T08:45:55.936Z,3.55
2022-08-02T08:48:32.638Z,3.53
2022-08-02T08:51:12.073Z,3.75
2022-08-02T08:53:49.286Z,3.92
2022-08-02T08:56:34.275Z,3.95
2022-08-02T08:59:07.676Z,4.07
2022-08-02T09:01:49.763Z,4.15
2022-08-02T09:04:25.255Z,4.03
2022-08-02T09:06:58.984Z,4.10
2022-08-02T09:09:32.224Z,4.05
2022-08-02T09:12:18.157Z,4.25
2022-08-02T09:14:51.294Z,4.05
2022-08-02T09:17:24.395Z,4.00
2022-08-02T09:20:10.318Z,4.13
2022-08-02T09:22:43.595Z,4.30
2022-08-02T09:25:17.295Z,3.92
2022-08-02T09:27:50.657Z,4.40
2022-08-02T09:30:23.869Z,5.18
2022-08-02T09:32:57.079Z,5.57
2022-08-02T09:36:06.383Z,6.40
2022-08-02T09:38:37.254Z,6.47
2022-08-02T09:41:23.573Z,5.60
2022-08-02T09:44:04.302Z,4.40
2022-08-02T09:46:42.862Z,5.35
2022-08-02T09:49:20.218Z,5.63
2022-08-02T09:51:57.016Z,4.40
2022-08-02T09:54:31.100Z,4.53
2022-08-02T09:57:04.557Z,4.50
2022-08-02T09:59:38.145Z,4.80
2022-08-02T10:02:17.023Z,4.10
2022-08-02T10:04:53.476Z,4.45
2022-08-02T10:07:30.476Z,5.05
2022-08-02T10:10:04.075Z,4.40
2022-08-02T10:12:37.886Z,5.20
2022-08-02T10:15:12.206Z,5.82
2022-08-02T10:17:46.219Z,6.25
2022-08-02T10:20:19.541Z,3.95
2022-08-02T10:22:56.446Z,3.08
2022-08-02T10:25:30.795Z,3.60
2022-08-02T10:28:05.798Z,3.15
2022-08-02T10:30:41.999Z,2.85
2022-08-02T10:33:19.334Z,2.78
2022-08-02T10:36:06.671Z,2.80
2022-08-02T10:38:42.843Z,2.58
2022-08-02T10:41:15.991Z,2.80
2022-08-02T10:43:50.296Z,2.97
2022-08-02T10:46:33.491Z,3.25
2022-08-02T10:49:37.837Z,2.65
2022-08-02T10:52:09.842Z,2.50
2022-08-02T10:54:57.018Z,2.80
2022-08-02T10:57:33.520Z,2.55
2022-08-02T11:00:17.238Z,2.60
2022-08-02T11:02:53.828Z,2.83
2022-08-02T11:05:43.249Z,3.17
2022-08-02T11:08:21.509Z,3.63
2022-08-02T11:11:01.079Z,4.40
2022-08-02T11:14:01.262Z,3.55
2022-08-02T11:17:14.073Z,3.70
2022-08-02T11:20:21.740Z,4.30
2022-08-02T11:22:56.720Z,3.42
2022-08-02T11:26:02.682Z,4.15
2022-08-02T11:28:32.060Z,3.90
2022-08-02T11:31:07.340Z,3.30
2022-08-02T11:33:41.404Z,4.00
2022-08-02T11:36:15.992Z,3.50
2022-08-02T11:38:49.227Z,3.75
2022-08-02T11:41:46.031Z,3.92
2022-08-02T11:44:17.358Z,3.63
2022-08-02T11:46:59.451Z,2.90
2022-08-02T11:49:32.594Z,3.20
2022-08-02T11:52:08.075Z,3.63
2022-08-02T11:54:44.117Z,2.92
2022-08-02T11:57:20.863Z,2.70
2022-08-02T11:59:57.442Z,2.50
2022-08-02T12:02:33.815Z,3.33
2022-08-02T12:05:09.432Z,2.83
2022-08-02T12:07:46.107Z,2.50
2022-08-02T12:10:21.626Z,2.13
2022-08-02T12:12:57.327Z,2.33
2022-08-02T12:15:34.802Z,2.40
2022-08-02T12:18:29.488Z,2.20
2022-08-02T12:21:03.552Z,3.00
2022-08-02T12:23:59.940Z,2.72
2022-08-02T12:26:44.234Z,2.97
2022-08-02T12:29:58.886Z,2.60
2022-08-02T12:32:26.237Z,2.22
2022-08-02T12:35:08.949Z,2.50
2022-08-02T12:37:44.801Z,2.28
2022-08-02T12:40:32.051Z,2.63
2022-08-02T12:43:08.508Z,2.47
2022-08-02T12:45:50.365Z,2.55
2022-08-02T12:48:40.362Z,2.28
2022-08-02T12:51:50.906Z,2.30
2022-08-02T12:54:30.613Z,2.55
2022-08-02T12:57:12.761Z,2.15
2022-08-02T12:59:52.348Z,2.20
2022-08-02T13:02:25.590Z,2.20
2022-08-02T13:05:02.137Z,2.53
2022-08-02T13:07:35.452Z,2.40
2022-08-02T13:10:10.476Z,2.28
2022-08-02T13:12:43.727Z,2.03
2022-08-02T13:15:49.666Z,2.17
2022-08-02T13:18:11.230Z,2.28
2022-08-02T13:20:45.965Z,2.10
2022-08-02T13:23:21.595Z,2.35
2022-08-02T13:25:55.730Z,2.40
2022-08-02T13:28:29.254Z,2.20
2022-08-02T13:31:20.590Z,2.05
2022-08-02T13:33:55.592Z,2.00
2022-08-02T13:36:30.102Z,2.03
2022-08-02T13:39:04.569Z,2.00
2022-08-02T13:41:37.680Z,2.08
2022-08-02T13:44:11.213Z,2.17
2022-08-02T13:46:45.391Z,2.20
2022-08-02T13:49:21.566Z,2.10
2022-08-02T13:51:56.514Z,2.40
2022-08-02T13:54:29.615Z,2.22
2022-08-02T13:57:02.783Z,2.42
2022-08-02T13:59:56.153Z,2.10
2022-08-02T14:02:29.415Z,2.17
2022-08-02T14:05:02.490Z,1.98
2022-08-02T14:07:36.971Z,2.30
2022-08-02T14:10:10.927Z,2.10
2022-08-02T14:12:44.034Z,2.15
2022-08-02T14:15:17.241Z,2.10
2022-08-02T14:17:50.361Z,2.00
2022-08-02T14:20:30.300Z,2.10
2022-08-02T14:23:05.011Z,2.13
2022-08-02T14:25:38.648Z,2.17
2022-08-02T14:28:11.806Z,2.08
2022-08-02T14:30:45.361Z,1.92
2022-08-02T14:33:18.914Z,1.95
2022-08-02T14:35:52.002Z,2.10
2022-08-02T14:38:32.701Z,2.00
2022-08-02T14:41:06.158Z,1.92
2022-08-02T14:43:57.097Z,1.92
2022-08-02T14:46:30.405Z,1.98
2022-08-02T14:49:04.318Z,1.75
2022-08-02T14:51:39.166Z,1.80
2022-08-02T14:54:14.697Z,2.08
2022-08-02T14:56:48.227Z,2.00
2022-08-02T14:59:22.055Z,1.80
2022-08-02T15:01:55.550Z,2.20
2022-08-02T15:04:34.328Z,2.05
2022-08-02T15:07:15.982Z,2.05
2022-08-02T15:09:51.026Z,2.03
2022-08-02T15:12:24.122Z,2.10
2022-08-02T15:14:57.183Z,1.90
2022-08-02T15:17:31.867Z,1.98
2022-08-02T15:20:25.203Z,1.80
2022-08-02T15:22:59.041Z,1.70
2022-08-02T15:25:37.273Z,2.15
2022-08-02T15:28:12.849Z,1.80
2022-08-02T15:30:45.914Z,1.80
2022-08-02T15:33:18.997Z,1.60
2022-08-02T15:35:52.338Z,1.95
2022-08-02T15:38:25.509Z,2.10
2022-08-02T15:41:00.276Z,1.73
2022-08-02T15:43:40.622Z,1.90
2022-08-02T15:46:30.775Z,1.80
2022-08-02T15:49:06.137Z,1.65
2022-08-02T15:51:39.332Z,1.95
2022-08-02T15:54:12.554Z,1.90
2022-08-02T15:56:47.142Z,1.80
2022-08-02T15:59:20.412Z,2.10
2022-08-02T16:01:53.605Z,1.90
2022-08-02T16:04:26.875Z,2.00
2022-08-02T16:07:01.834Z,1.95
2022-08-02T16:09:35.136Z,1.80
2022-08-02T16:12:10.494Z,2.00
2022-08-02T16:14:43.862Z,1.80
2022-08-02T16:17:48.347Z,1.73
2022-08-02T16:20:11.670Z,2.00
2022-08-02T16:22:45.051Z,1.90
2022-08-02T16:25:18.611Z,1.80
2022-08-02T16:27:59.417Z,2.28
2022-08-02T16:30:42.102Z,1.65
2022-08-02T16:33:15.443Z,1.90
2022-08-02T16:35:48.630Z,1.88
2022-08-02T16:38:21.735Z,1.60
2022-08-02T16:40:59.879Z,1.65
2022-08-02T16:43:36.242Z,1.80
2022-08-02T16:46:10.184Z,1.98
2022-08-02T16:48:50.822Z,1.75
2022-08-02T16:51:27.075Z,2.17
2022-08-02T16:54:04.215Z,1.90
2022-08-02T16:56:42.537Z,1.90
2022-08-02T16:59:17.005Z,1.90
2022-08-02T17:02:03.285Z,1.70
2022-08-02T17:04:43.541Z,2.13
2022-08-02T17:08:16.617Z,2.05
2022-08-02T17:10:10.216Z,1.95
2022-08-02T17:12:43.391Z,1.83
2022-08-02T17:16:08.588Z,1.98
2022-08-02T17:18:11.851Z,2.25
2022-08-02T17:20:45.271Z,2.20
2022-08-02T17:23:18.406Z,2.03
2022-08-02T17:25:52.739Z,2.28
2022-08-02T17:28:32.080Z,1.90
2022-08-02T17:31:10.035Z,1.90
2022-08-02T17:33:43.148Z,2.05
2022-08-02T17:36:18.279Z,1.80
2022-08-02T17:38:51.914Z,1.88
2022-08-02T17:41:37.985Z,2.05
2022-08-02T17:44:12.875Z,2.10
2022-08-02T17:46:47.486Z,2.10
2022-08-02T17:49:23.910Z,2.20
2022-08-02T17:52:48.828Z,2.17
2022-08-02T17:54:50.925Z,2.38
2022-08-02T17:57:24.035Z,2.58
2022-08-02T18:00:18.791Z,2.50
2022-08-02T18:02:55.582Z,2.17
2022-08-02T18:05:40.135Z,2.33
2022-08-02T18:08:23.662Z,2.10
2022-08-02T18:10:58.459Z,2.08
2022-08-02T18:13:33.102Z,2.20
2022-08-02T18:16:21.130Z,2.30
2022-08-02T18:18:56.231Z,2.28
2022-08-02T18:21:36.227Z,2.60
2022-08-02T18:24:10.291Z,2.20
2022-08-02T18:26:44.254Z,2.60
2022-08-02T18:29:17.909Z,2.00
2022-08-02T18:31:54.259Z,2.30
2022-08-02T18:34:31.397Z,2.30
2022-08-02T18:37:04.676Z,2.20
2022-08-02T18:39:39.747Z,1.98
2022-08-02T18:42:24.315Z,2.40
2022-08-02T18:44:57.574Z,2.10
2022-08-02T18:47:33.017Z,2.08
2022-08-02T18:50:09.370Z,2.05
2022-08-02T18:52:43.464Z,2.22
2022-08-02T18:55:59.749Z,2.10
2022-08-02T18:58:20.261Z,2.58
2022-08-02T19:00:54.132Z,2.22
2022-08-02T19:03:28.135Z,2.38
2022-08-02T19:06:02.629Z,2.70
2022-08-02T19:08:35.922Z,2.35
2022-08-02T19:11:09.325Z,2.42
2022-08-02T19:13:42.886Z,2.70
2022-08-02T19:16:16.085Z,2.60
2022-08-02T19:18:49.223Z,2.45
2022-08-02T19:22:16.319Z,2.30
2022-08-02T19:24:16.800Z,2.22
2022-08-02T19:26:52.601Z,2.55
2022-08-02T19:29:43.228Z,2.50
2022-08-02T19:32:41.976Z,2.20
2022-08-02T19:35:15.293Z,2.35
2022-08-02T19:38:10.504Z,2.20
2022-08-02T19:40:44.623Z,2.47
2022-08-02T19:44:24.210Z,2.45
2022-08-02T19:46:15.941Z,2.20
2022-08-02T19:48:49.334Z,2.17
2022-08-02T19:51:55.253Z,2.50
2022-08-02T19:54:18.646Z,2.22
2022-08-02T19:56:51.831Z,2.63
2022-08-02T19:59:30.837Z,2.63
2022-08-02T20:02:06.766Z,2.50
2022-08-02T20:05:34.192Z,2.50
2022-08-02T20:08:07.440Z,2.47
2022-08-02T20:10:45.899Z,2.72
2022-08-02T20:13:23.427Z,3.00
2022-08-02T20:15:57.305Z,2.83
2022-08-02T20:18:31.799Z,3.47
2022-08-02T20:21:05.210Z,3.17
2022-08-02T20:23:58.704Z,3.17
2022-08-02T20:26:33.268Z,3.33
2022-08-02T20:29:09.502Z,2.88
2022-08-02T20:31:42.597Z,2.60
2022-08-02T20:34:15.866Z,3.00
2022-08-02T20:36:53.802Z,2.90
2022-08-02T20:39:43.758Z,2.70
2022-08-02T20:42:23.571Z,2.88
2022-08-02T20:44:57.789Z,2.90
2022-08-02T20:47:39.360Z,2.75
2022-08-02T20:50:33.267Z,2.50
2022-08-02T20:53:23.687Z,2.70
2022-08-02T20:55:59.563Z,2.67
2022-08-02T20:58:34.094Z,2.70
2022-08-02T21:01:07.201Z,2.65
2022-08-02T21:03:40.340Z,2.78
2022-08-02T21:06:14.858Z,2.80
2022-08-02T21:08:50.170Z,3.17
2022-08-02T21:11:25.640Z,2.60
2022-08-02T21:14:09.205Z,2.70
2022-08-02T21:16:42.526Z,2.95
2022-08-02T21:19:16.259Z,3.28
2022-08-02T21:21:49.471Z,2.85
2022-08-02T21:24:24.717Z,2.70
2022-08-02T21:26:57.992Z,2.90
2022-08-02T21:29:33.176Z,2.72
2022-08-02T21:32:07.504Z,3.05
2022-08-02T21:34:40.722Z,3.10
2022-08-02T21:37:16.599Z,3.47
2022-08-02T21:39:50.171Z,2.92
2022-08-02T21:42:27.659Z,2.70
2022-08-02T21:45:02.448Z,3.20
2022-08-02T21:47:50.825Z,3.20
2022-08-02T21:50:23.987Z,3.00
2022-08-02T21:52:58.795Z,3.58
2022-08-02T21:56:00.675Z,2.75
2022-08-02T21:58:27.589Z,3.38
2022-08-02T22:01:02.662Z,3.13
2022-08-02T22:03:37.875Z,3.08
2022-08-02T22:06:11.048Z,3.63
2022-08-02T22:08:44.115Z,3.50
2022-08-02T22:11:17.534Z,3.50
2022-08-02T22:13:50.634Z,3.53
2022-08-02T22:16:25.068Z,3.17
2022-08-02T22:18:59.678Z,3.33
2022-08-02T22:21:46.688Z,3.35
2022-08-02T22:24:29.773Z,3.22
2022-08-02T22:27:03.549Z,3.13
2022-08-02T22:29:36.739Z,3.10
2022-08-02T22:32:12.418Z,3.05
2022-08-02T22:34:53.959Z,3.33
2022-08-02T22:38:15.541Z,3.38
2022-08-02T22:40:20.146Z,3.40
2022-08-02T22:42:54.048Z,3.50
2022-08-02T22:45:28.732Z,3.28
2022-08-02T22:48:07.874Z,3.45
2022-08-02T22:50:41.045Z,3.20
2022-08-02T22:53:14.196Z,3.58
2022-08-02T22:55:57.896Z,3.60
2022-08-02T22:58:31.059Z,3.80
2022-08-02T23:01:05.302Z,3.60
2022-08-02T23:03:40.228Z,3.55
2022-08-02T23:06:13.359Z,3.63
2022-08-02T23:08:46.586Z,3.65
2022-08-02T23:11:20.070Z,3.92
2022-08-02T23:13:53.250Z,3.30
2022-08-02T23:16:43.792Z,3.38
2022-08-02T23:19:35.840Z,3.60
2022-08-02T23:22:08.962Z,3.70
2022-08-02T23:24:42.088Z,3.80
2022-08-02T23:27:15.803Z,3.63
2022-08-02T23:29:49.858Z,3.45
2022-08-02T23:32:25.657Z,3.47
2022-08-02T23:35:00.472Z,3.65
2022-08-02T23:37:58.997Z,3.33
2022-08-02T23:40:38.946Z,3.63
2022-08-02T23:43:15.348Z,3.83
2022-08-02T23:45:48.623Z,3.80
2022-08-02T23:48:21.727Z,3.97
2022-08-02T23:50:56.245Z,4.05
2022-08-02T23:53:30.134Z,3.88
2022-08-02T23:56:03.359Z,3.55
2022-08-02T23:58:36.689Z,3.90
